createdAt,value
2018-06-16T00:01:45.528Z,6.27
2018-06-16T00:04:14.661Z,6.43
2018-06-16T00:06:43.792Z,5.90
2018-06-16T00:09:12.823Z,5.67
2018-06-16T00:11:41.879Z,4.80
2018-06-16T00:14:10.711Z,6.03
2018-06-16T00:16:39.825Z,5.80
2018-06-16T00:19:08.947Z,5.63
2018-06-16T00:21:38.187Z,5.90
2018-06-16T00:24:06.984Z,5.30
2018-06-16T00:26:36.340Z,6.83
2018-06-16T00:29:05.417Z,6.57
2018-06-16T00:31:34.320Z,6.10
2018-06-16T00:34:03.777Z,6.40
2018-06-16T00:36:33.218Z,6.30
2018-06-16T00:39:02.130Z,7.90
2018-06-16T00:41:31.413Z,6.67
2018-06-16T00:44:00.774Z,5.80
2018-06-16T00:46:29.865Z,6.43
2018-06-16T00:48:59.054Z,7.20
2018-06-16T00:51:27.846Z,7.70
2018-06-16T00:53:56.655Z,8.27
2018-06-16T00:56:25.834Z,8.17
2018-06-16T00:58:55.087Z,7.70
2018-06-16T01:01:24.598Z,5.97
2018-06-16T01:03:53.825Z,7.20
2018-06-16T01:06:22.655Z,7.07
2018-06-16T01:08:51.731Z,7.23
2018-06-16T01:11:20.915Z,8.40
2018-06-16T01:13:49.808Z,7.43
2018-06-16T01:16:18.988Z,6.60
2018-06-16T01:18:48.143Z,6.87
2018-06-16T01:21:17.525Z,6.87
2018-06-16T01:23:46.851Z,8.37
2018-06-16T01:26:15.811Z,8.10
2018-06-16T01:28:45.000Z,8.20
2018-06-16T01:31:14.103Z,8.30
2018-06-16T01:33:43.678Z,8.10
2018-06-16T01:36:12.489Z,9.30
2018-06-16T01:38:41.672Z,8.60
2018-06-16T01:41:10.512Z,9.70
2018-06-16T01:43:40.005Z,8.40
2018-06-16T01:46:09.007Z,9.10
2018-06-16T01:48:38.109Z,9.07
2018-06-16T01:51:07.292Z,9.90
2018-06-16T01:53:36.135Z,8.43
2018-06-16T01:56:05.284Z,11.37
2018-06-16T01:58:34.189Z,9.80
2018-06-16T02:01:03.144Z,9.37
2018-06-16T02:03:32.605Z,9.77
2018-06-16T02:06:02.051Z,10.53
2018-06-16T02:08:31.505Z,8.33
2018-06-16T02:11:00.608Z,8.53
2018-06-16T02:13:30.087Z,7.87
2018-06-16T02:15:59.274Z,8.53
2018-06-16T02:18:28.404Z,10.07
2018-06-16T02:20:57.571Z,9.77
2018-06-16T02:23:26.764Z,9.23
2018-06-16T02:25:55.944Z,7.93
2018-06-16T02:28:25.050Z,8.57
2018-06-16T02:30:54.205Z,9.63
2018-06-16T02:33:23.040Z,8.50
2018-06-16T02:35:52.047Z,9.00
2018-06-16T02:38:21.842Z,10.30
2018-06-16T02:40:51.429Z,9.73
2018-06-16T02:43:20.560Z,9.10
2018-06-16T02:45:49.628Z,9.63
2018-06-16T02:48:19.326Z,10.20
2018-06-16T02:50:48.470Z,8.77
2018-06-16T02:53:17.759Z,9.80
2018-06-16T02:55:46.926Z,9.97
2018-06-16T02:58:15.780Z,9.83
2018-06-16T03:00:45.077Z,9.33
2018-06-16T03:03:15.055Z,9.37
2018-06-16T03:05:44.309Z,10.10
2018-06-16T03:08:13.797Z,9.67
2018-06-16T03:10:43.299Z,10.80
2018-06-16T03:13:12.129Z,8.60
2018-06-16T03:15:41.277Z,10.70
2018-06-16T03:18:10.758Z,10.57
2018-06-16T03:20:40.073Z,10.47
2018-06-16T03:23:09.335Z,9.60
2018-06-16T03:25:38.588Z,10.23
2018-06-16T03:28:07.800Z,10.40
2018-06-16T03:30:37.583Z,10.80
2018-06-16T03:33:07.114Z,10.67
2018-06-16T03:35:36.502Z,12.57
2018-06-16T03:38:05.456Z,12.10
2018-06-16T03:40:34.619Z,12.50
2018-06-16T03:43:04.255Z,11.70
2018-06-16T03:45:33.511Z,12.10
2018-06-16T03:48:02.557Z,11.50
2018-06-16T03:50:32.163Z,12.60
2018-06-16T03:53:15.595Z,12.67
2018-06-16T03:55:44.911Z,11.70
2018-06-16T03:58:14.185Z,11.87
2018-06-16T04:00:43.573Z,12.43
2018-06-16T04:03:12.456Z,12.83
2018-06-16T04:05:41.367Z,10.40
2018-06-16T04:08:10.775Z,11.00
2018-06-16T04:10:39.932Z,11.90
2018-06-16T04:13:09.461Z,13.43
2018-06-16T04:15:38.704Z,12.63
2018-06-16T04:18:07.672Z,12.07
2018-06-16T04:20:36.531Z,13.27
2018-06-16T04:23:06.157Z,13.63
2018-06-16T04:25:35.322Z,12.20
2018-06-16T04:28:05.256Z,12.10
2018-06-16T04:30:34.416Z,12.03
2018-06-16T04:33:03.926Z,12.43
2018-06-16T04:35:33.129Z,10.63
2018-06-16T04:38:02.788Z,11.47
2018-06-16T04:40:31.945Z,13.40
2018-06-16T04:43:01.091Z,12.40
2018-06-16T04:45:29.958Z,12.00
2018-06-16T04:47:59.275Z,12.47
2018-06-16T04:50:28.483Z,11.30
2018-06-16T04:52:58.242Z,12.30
2018-06-16T04:55:27.435Z,12.30
2018-06-16T04:57:56.648Z,11.90
2018-06-16T05:00:25.765Z,10.70
2018-06-16T05:02:55.342Z,13.00
2018-06-16T05:05:24.315Z,11.10
2018-06-16T05:07:53.479Z,11.40
2018-06-16T05:10:22.328Z,11.93
2018-06-16T05:12:51.676Z,10.50
2018-06-16T05:15:20.604Z,10.83
2018-06-16T05:17:49.895Z,10.57
2018-06-16T05:20:19.190Z,12.13
2018-06-16T05:22:48.116Z,10.57
2018-06-16T05:25:17.188Z,10.77
2018-06-16T05:27:46.194Z,10.73
2018-06-16T05:30:15.396Z,11.97
2018-06-16T05:32:44.905Z,11.03
2018-06-16T05:35:14.191Z,10.83
2018-06-16T05:37:43.505Z,11.70
2018-06-16T05:40:13.568Z,13.17
2018-06-16T05:42:43.149Z,12.20
2018-06-16T05:45:12.123Z,11.67
2018-06-16T05:47:40.988Z,12.13
2018-06-16T05:50:09.890Z,12.73
2018-06-16T05:52:38.816Z,12.27
2018-06-16T05:55:08.005Z,12.73
2018-06-16T05:57:37.248Z,11.40
2018-06-16T06:00:08.548Z,12.13
2018-06-16T06:02:39.156Z,12.23
2018-06-16T06:05:09.678Z,12.77
2018-06-16T06:07:39.985Z,12.53
2018-06-16T06:10:10.069Z,12.73
2018-06-16T06:12:40.381Z,13.43
2018-06-16T06:15:09.670Z,13.13
2018-06-16T06:17:43.801Z,12.87
2018-06-16T06:20:13.438Z,13.43
2018-06-16T06:22:42.406Z,13.67
2018-06-16T06:25:11.432Z,12.63
2018-06-16T06:27:40.855Z,13.80
2018-06-16T06:30:10.140Z,13.90
2018-06-16T06:32:39.915Z,13.30
2018-06-16T06:35:10.196Z,14.20
2018-06-16T06:37:39.879Z,13.50
2018-06-16T06:40:09.651Z,14.13
2018-06-16T06:42:39.092Z,14.50
2018-06-16T06:45:08.154Z,15.27
2018-06-16T06:47:37.183Z,15.90
2018-06-16T06:50:06.966Z,13.80
2018-06-16T06:52:36.313Z,15.03
2018-06-16T06:55:05.744Z,13.67
2018-06-16T06:57:34.865Z,14.80
2018-06-16T07:00:03.913Z,14.57
2018-06-16T07:02:33.881Z,15.17
2018-06-16T07:05:02.825Z,14.93
2018-06-16T07:07:32.373Z,16.90
2018-06-16T07:10:01.675Z,17.00
2018-06-16T07:12:30.920Z,16.57
2018-06-16T07:15:00.387Z,15.77
2018-06-16T07:17:29.687Z,17.93
2018-06-16T07:19:59.040Z,18.00
2018-06-16T07:22:29.305Z,18.23
2018-06-16T07:24:58.842Z,19.00
2018-06-16T07:27:28.166Z,18.43
2018-06-16T07:29:57.610Z,17.90
2018-06-16T07:32:27.604Z,18.40
2018-06-16T07:34:57.246Z,18.07
2018-06-16T07:37:27.169Z,19.80
2018-06-16T07:39:56.617Z,18.33
2018-06-16T07:42:25.701Z,19.40
2018-06-16T07:44:55.002Z,21.00
2018-06-16T07:47:23.906Z,18.60
2018-06-16T07:49:54.042Z,21.00
2018-06-16T07:52:23.931Z,19.00
2018-06-16T07:54:53.151Z,18.27
2018-06-16T07:57:22.779Z,19.47
2018-06-16T07:59:52.153Z,21.23
2018-06-16T08:02:21.900Z,20.93
2018-06-16T08:04:51.250Z,20.20
2018-06-16T08:07:21.666Z,22.70
2018-06-16T08:09:50.669Z,20.50
2018-06-16T08:12:21.087Z,21.13
2018-06-16T08:14:51.452Z,20.90
2018-06-16T08:17:20.589Z,20.80
2018-06-16T08:19:50.110Z,21.40
2018-06-16T08:22:20.594Z,20.73
2018-06-16T08:24:50.416Z,20.73
2018-06-16T08:27:19.470Z,22.83
2018-06-16T08:29:49.493Z,20.43
2018-06-16T08:32:19.545Z,21.07
2018-06-16T08:34:48.836Z,19.03
2018-06-16T08:37:18.540Z,20.90
2018-06-16T08:39:47.914Z,21.20
2018-06-16T08:42:16.824Z,20.00
2018-06-16T08:44:45.806Z,19.90
2018-06-16T08:47:15.324Z,19.33
2018-06-16T08:49:44.660Z,20.77
2018-06-16T08:52:13.703Z,17.40
2018-06-16T08:54:43.452Z,16.20
2018-06-16T08:57:12.395Z,17.60
2018-06-16T08:59:41.846Z,16.67
2018-06-16T09:02:10.928Z,17.83
2018-06-16T09:04:40.038Z,17.30
2018-06-16T09:07:08.889Z,17.57
2018-06-16T09:09:39.503Z,16.07
2018-06-16T09:12:09.018Z,16.93
2018-06-16T09:14:37.914Z,17.47
2018-06-16T09:17:07.208Z,18.47
2018-06-16T09:19:36.682Z,18.80
2018-06-16T09:22:05.612Z,18.23
2018-06-16T09:24:34.430Z,18.87
2018-06-16T09:27:03.400Z,20.20
2018-06-16T09:29:32.284Z,17.60
2018-06-16T09:32:01.137Z,17.53
2018-06-16T09:34:29.958Z,18.93
2018-06-16T09:36:59.217Z,21.47
2018-06-16T09:39:28.396Z,21.80
2018-06-16T09:41:57.285Z,20.60
2018-06-16T09:44:26.480Z,21.97
2018-06-16T09:46:55.579Z,21.27
2018-06-16T09:49:25.099Z,21.07
2018-06-16T09:51:54.085Z,23.37
2018-06-16T09:54:23.296Z,24.63
2018-06-16T09:56:52.192Z,22.87
2018-06-16T09:59:21.152Z,23.27
2018-06-16T10:01:50.292Z,21.13
2018-06-16T10:04:19.394Z,23.20
2018-06-16T10:06:49.625Z,24.77
2018-06-16T10:09:18.897Z,24.00
2018-06-16T10:11:47.924Z,25.20
2018-06-16T10:14:16.872Z,22.57
2018-06-16T10:16:46.122Z,21.87
2018-06-16T10:19:15.478Z,24.87
2018-06-16T10:21:45.100Z,23.40
2018-06-16T10:24:14.487Z,24.00
2018-06-16T10:26:43.315Z,23.67
2018-06-16T10:29:13.368Z,25.40
2018-06-16T10:31:42.633Z,23.63
2018-06-16T10:34:11.689Z,21.50
2018-06-16T10:36:40.568Z,22.03
2018-06-16T10:39:10.310Z,23.87
2018-06-16T10:41:39.769Z,22.57
2018-06-16T10:44:08.731Z,21.00
2018-06-16T10:46:37.781Z,22.30
2018-06-16T10:49:06.993Z,21.13
2018-06-16T10:51:35.800Z,19.17
2018-06-16T10:54:04.735Z,20.47
2018-06-16T10:59:34.478Z,18.13
2018-06-16T11:02:03.648Z,19.20
2018-06-16T11:04:33.335Z,19.70
2018-06-16T11:07:02.389Z,21.03
2018-06-16T11:09:31.376Z,19.03
2018-06-16T11:12:00.204Z,18.17
2018-06-16T11:14:30.028Z,18.63
2018-06-16T11:16:59.409Z,16.40
2018-06-16T11:19:28.532Z,13.60
2018-06-16T11:21:57.407Z,13.67
2018-06-16T11:24:26.305Z,13.63
2018-06-16T11:26:55.787Z,12.40
2018-06-16T11:29:24.702Z,11.40
2018-06-16T11:31:54.518Z,13.27
2018-06-16T11:34:23.348Z,12.70
2018-06-16T11:36:52.185Z,13.00
2018-06-16T11:39:21.610Z,12.93
2018-06-16T11:41:51.779Z,12.10
2018-06-16T11:44:25.715Z,13.20
2018-06-16T11:46:55.104Z,13.20
2018-06-16T11:49:24.983Z,11.97
2018-06-16T11:51:54.252Z,9.73
2018-06-16T11:54:23.543Z,8.40
2018-06-16T11:56:53.401Z,7.80
2018-06-16T11:59:22.258Z,7.63
2018-06-16T12:01:51.928Z,7.43
2018-06-16T12:04:21.495Z,8.33
2018-06-16T12:06:51.073Z,6.77
2018-06-16T12:09:19.962Z,7.90
2018-06-16T12:11:51.273Z,6.60
2018-06-16T12:14:20.125Z,6.90
2018-06-16T12:16:49.001Z,7.60
2018-06-16T12:19:18.812Z,7.33
2018-06-16T12:21:47.704Z,7.13
2018-06-16T12:24:16.962Z,8.43
2018-06-16T12:26:46.091Z,9.33
2018-06-16T12:29:15.289Z,8.23
2018-06-16T12:31:44.255Z,8.53
2018-06-16T12:34:13.393Z,8.23
2018-06-16T12:36:42.261Z,9.00
2018-06-16T12:39:12.116Z,9.77
2018-06-16T12:41:41.002Z,8.67
2018-06-16T12:44:10.257Z,9.20
2018-06-16T12:46:39.571Z,8.50
2018-06-16T12:49:08.663Z,8.43
2018-06-16T12:51:39.716Z,8.90
2018-06-16T12:54:08.832Z,8.97
2018-06-16T12:56:38.392Z,8.67
2018-06-16T12:59:07.509Z,8.57
2018-06-16T13:01:36.970Z,10.17
2018-06-16T13:04:05.843Z,9.53
2018-06-16T13:06:34.723Z,8.80
2018-06-16T13:09:04.787Z,9.97
2018-06-16T13:11:34.219Z,11.03
2018-06-16T13:14:03.727Z,10.23
2018-06-16T13:16:32.642Z,8.80
2018-06-16T13:19:01.753Z,8.47
2018-06-16T13:21:30.877Z,8.37
2018-06-16T13:24:01.613Z,8.37
2018-06-16T13:26:31.126Z,9.37
2018-06-16T13:29:00.619Z,8.70
2018-06-16T13:31:29.501Z,9.77
2018-06-16T13:33:58.664Z,9.33
2018-06-16T13:36:28.011Z,9.37
2018-06-16T13:38:56.882Z,10.00
2018-06-16T13:41:26.304Z,8.63
2018-06-16T13:43:55.197Z,7.87
2018-06-16T13:46:24.703Z,6.80
2018-06-16T13:48:53.961Z,6.10
2018-06-16T13:51:23.244Z,4.83
2018-06-16T13:53:52.794Z,6.87
2018-06-16T13:56:22.235Z,5.10
2018-06-16T13:58:51.740Z,4.90
2018-06-16T14:01:20.704Z,6.13
2018-06-16T14:03:49.851Z,4.93
2018-06-16T14:06:19.161Z,3.93
2018-06-16T14:08:48.108Z,3.60
2018-06-16T14:11:17.458Z,3.33
2018-06-16T14:13:47.445Z,3.90
2018-06-16T14:16:17.252Z,3.57
2018-06-16T14:18:46.735Z,3.47
2018-06-16T14:21:15.885Z,3.70
2018-06-16T14:23:45.001Z,3.00
2018-06-16T14:26:13.901Z,3.97
2018-06-16T14:28:43.141Z,3.27
2018-06-16T14:31:11.954Z,4.27
2018-06-16T14:33:41.072Z,3.37
2018-06-16T14:36:10.204Z,2.47
2018-06-16T14:38:39.628Z,2.27
2018-06-16T14:41:08.782Z,2.30
2018-06-16T14:43:37.930Z,3.17
2018-06-16T14:46:06.789Z,2.47
2018-06-16T14:48:35.923Z,2.53
2018-06-16T14:51:04.830Z,2.33
2018-06-16T14:53:34.082Z,2.27
2018-06-16T14:56:03.349Z,2.50
2018-06-16T14:58:32.151Z,2.10
2018-06-16T15:01:01.663Z,2.37
2018-06-16T15:03:31.362Z,1.87
2018-06-16T15:06:00.284Z,2.07
2018-06-16T15:08:29.444Z,1.80
2018-06-16T15:10:58.815Z,2.37
2018-06-16T15:13:27.922Z,2.40
2018-06-16T15:15:57.048Z,2.47
2018-06-16T15:18:26.492Z,2.10
2018-06-16T15:20:56.269Z,2.63
2018-06-16T15:23:25.420Z,2.43
2018-06-16T15:25:54.259Z,1.93
2018-06-16T15:28:23.425Z,3.87
2018-06-16T15:30:52.676Z,2.13
2018-06-16T15:33:22.245Z,1.60
2018-06-16T15:35:51.436Z,1.93
2018-06-16T15:38:20.356Z,1.73
2018-06-16T15:40:49.863Z,2.23
2018-06-16T15:43:18.646Z,2.27
2018-06-16T15:45:47.502Z,1.80
2018-06-16T15:48:16.388Z,2.90
2018-06-16T15:50:46.201Z,2.97
2018-06-16T15:53:15.399Z,2.47
2018-06-16T15:55:44.816Z,3.07
2018-06-16T15:58:13.888Z,2.87
2018-06-16T16:00:43.081Z,2.47
2018-06-16T16:03:11.933Z,2.10
2018-06-16T16:05:41.279Z,2.67
2018-06-16T16:08:10.348Z,3.23
2018-06-16T16:10:39.663Z,2.57
2018-06-16T16:13:08.553Z,3.00
2018-06-16T16:15:38.419Z,3.17
2018-06-16T16:18:07.624Z,3.47
2018-06-16T16:20:36.467Z,3.07
2018-06-16T16:23:05.355Z,2.70
2018-06-16T16:25:34.835Z,3.63
2018-06-16T16:28:03.691Z,3.00
2018-06-16T16:30:33.016Z,3.30
2018-06-16T16:33:02.203Z,3.43
2018-06-16T16:35:31.411Z,3.17
2018-06-16T16:38:00.250Z,2.90
2018-06-16T16:40:30.362Z,3.97
2018-06-16T16:42:59.430Z,5.17
2018-06-16T16:45:28.587Z,4.00
2018-06-16T16:47:59.569Z,3.13
2018-06-16T16:50:30.318Z,3.70
2018-06-16T16:53:01.422Z,3.57
2018-06-16T16:55:31.975Z,3.00
2018-06-16T16:58:03.283Z,2.60
2018-06-16T17:00:34.603Z,2.30
2018-06-16T17:03:05.135Z,2.60
2018-06-16T17:05:35.654Z,4.40
2018-06-16T17:08:05.742Z,3.30
2018-06-16T17:10:35.569Z,2.60
2018-06-16T17:13:05.707Z,2.80
2018-06-16T17:15:35.015Z,2.73
2018-06-16T17:18:04.457Z,4.30
2018-06-16T17:20:33.690Z,3.30
2018-06-16T17:23:02.553Z,3.40
2018-06-16T17:25:31.600Z,2.80
2018-06-16T17:28:00.692Z,2.10
2018-06-16T17:30:30.145Z,1.80
2018-06-16T17:32:59.326Z,2.33
2018-06-16T17:35:28.211Z,2.60
2018-06-16T17:37:58.598Z,2.23
2018-06-16T17:40:27.418Z,2.27
2018-06-16T17:42:57.094Z,2.57
2018-06-16T17:45:26.047Z,1.90
2018-06-16T17:47:55.241Z,2.13
2018-06-16T17:50:24.728Z,3.60
2018-06-16T17:52:53.809Z,2.00
2018-06-16T17:55:22.658Z,2.43
2018-06-16T17:57:52.424Z,2.20
2018-06-16T18:00:21.612Z,2.27
2018-06-16T18:02:50.872Z,1.90
2018-06-16T18:05:20.264Z,3.30
2018-06-16T18:07:49.154Z,5.07
2018-06-16T18:10:18.018Z,6.23
2018-06-16T18:12:46.978Z,6.50
2018-06-16T18:15:15.876Z,7.00
2018-06-16T18:17:45.141Z,6.50
2018-06-16T18:20:13.937Z,8.30
2018-06-16T18:22:43.013Z,8.00
2018-06-16T18:25:11.962Z,10.40
2018-06-16T18:27:41.074Z,10.60
2018-06-16T18:30:10.717Z,10.60
2018-06-16T18:32:40.209Z,9.67
2018-06-16T18:35:09.360Z,12.33
2018-06-16T18:37:38.467Z,11.10
2018-06-16T18:40:07.437Z,12.40
2018-06-16T18:42:36.235Z,12.17
2018-06-16T18:45:05.368Z,11.77
2018-06-16T18:47:34.533Z,11.93
2018-06-16T18:50:03.369Z,12.70
2018-06-16T18:52:32.638Z,12.40
2018-06-16T18:55:02.158Z,12.40
2018-06-16T18:57:31.677Z,13.80
2018-06-16T19:00:00.830Z,13.43
2018-06-16T19:02:29.675Z,14.50
2018-06-16T19:04:59.091Z,13.50
2018-06-16T19:07:27.953Z,13.80
2018-06-16T19:09:56.971Z,15.13
2018-06-16T19:12:25.833Z,12.87
2018-06-16T19:14:54.909Z,12.90
2018-06-16T19:17:24.077Z,13.50
2018-06-16T19:19:53.305Z,12.33
2018-06-16T19:22:22.507Z,12.43
2018-06-16T19:24:52.604Z,12.20
2018-06-16T19:27:21.450Z,13.17
2018-06-16T19:29:50.545Z,12.90
2018-06-16T19:32:20.150Z,11.03
2018-06-16T19:34:49.593Z,12.10
2018-06-16T19:37:18.709Z,10.63
2018-06-16T19:39:48.132Z,12.07
2018-06-16T19:42:17.473Z,12.10
2018-06-16T19:44:46.405Z,11.37
2018-06-16T19:47:15.821Z,10.70
2018-06-16T19:49:44.935Z,12.17
2018-06-16T19:52:14.001Z,11.30
2018-06-16T19:54:43.415Z,13.10
2018-06-16T19:57:11.492Z,10.57
2018-06-16T19:59:40.771Z,9.77
2018-06-16T20:02:10.230Z,10.00
2018-06-16T20:04:39.098Z,9.20
2018-06-16T20:07:08.196Z,9.87
2018-06-16T20:09:37.372Z,10.40
2018-06-16T20:12:07.158Z,10.17
2018-06-16T20:14:36.934Z,10.23
2018-06-16T20:17:06.327Z,10.20
2018-06-16T20:19:36.143Z,9.33
2018-06-16T20:22:05.384Z,9.17
2018-06-16T20:24:34.398Z,9.40
2018-06-16T20:27:03.688Z,8.40
2018-06-16T20:29:32.521Z,7.70
2018-06-16T20:32:01.931Z,7.20
2018-06-16T20:34:31.932Z,5.60
2018-06-16T20:37:01.240Z,5.47
2018-06-16T20:39:30.520Z,6.20
2018-06-16T20:41:59.896Z,5.50
2018-06-16T20:44:29.083Z,5.07
2018-06-16T20:46:58.581Z,3.87
2018-06-16T20:49:27.403Z,4.97
2018-06-16T20:51:56.281Z,4.90
2018-06-16T20:54:25.932Z,4.70
2018-06-16T20:56:55.497Z,4.97
2018-06-16T20:59:24.330Z,5.27
2018-06-16T21:01:53.162Z,5.73
2018-06-16T21:04:23.123Z,5.33
2018-06-16T21:06:52.736Z,6.53
2018-06-16T21:09:21.939Z,5.93
2018-06-16T21:11:51.583Z,4.97
2018-06-16T21:14:20.704Z,5.70
2018-06-16T21:16:49.588Z,6.33
2018-06-16T21:19:19.054Z,5.70
2018-06-16T21:21:48.307Z,5.47
2018-06-16T21:24:17.138Z,5.50
2018-06-16T21:26:46.277Z,5.60
2018-06-16T21:29:15.622Z,5.47
2018-06-16T21:31:44.394Z,6.60
2018-06-16T21:34:13.275Z,6.10
2018-06-16T21:36:42.150Z,5.83
2018-06-16T21:39:11.654Z,5.63
2018-06-16T21:41:40.997Z,5.63
2018-06-16T21:44:10.221Z,4.40
2018-06-16T21:46:39.504Z,5.33
2018-06-16T21:49:08.861Z,4.77
2018-06-16T21:51:38.584Z,5.30
2018-06-16T21:54:08.710Z,6.20
2018-06-16T21:56:38.107Z,6.07
2018-06-16T21:59:07.326Z,5.60
2018-06-16T22:01:37.643Z,4.70
2018-06-16T22:04:07.354Z,5.50
2018-06-16T22:06:37.043Z,5.03
2018-06-16T22:09:08.898Z,6.00
2018-06-16T22:11:37.892Z,5.03
2018-06-16T22:14:07.125Z,5.27
2018-06-16T22:16:36.362Z,5.10
2018-06-16T22:19:05.704Z,5.50
2018-06-16T22:21:35.287Z,6.00
2018-06-16T22:24:04.136Z,5.33
2018-06-16T22:26:34.870Z,6.03
2018-06-16T22:29:06.408Z,4.87
2018-06-16T22:31:37.086Z,5.60
2018-06-16T22:34:06.642Z,5.07
2018-06-16T22:36:35.957Z,5.93
2018-06-16T22:39:06.932Z,5.80
2018-06-16T22:41:35.880Z,7.23
2018-06-16T22:44:05.370Z,5.97
2018-06-16T22:46:34.227Z,5.00
2018-06-16T22:49:03.643Z,6.03
2018-06-16T22:51:33.582Z,5.60
2018-06-16T22:54:03.297Z,5.73
2018-06-16T22:56:32.933Z,5.53
2018-06-16T22:59:01.890Z,5.90
2018-06-16T23:01:31.127Z,5.67
2018-06-16T23:04:00.803Z,6.10
2018-06-16T23:06:29.991Z,6.20
2018-06-16T23:08:58.842Z,6.37
2018-06-16T23:11:28.854Z,5.73
2018-06-16T23:13:58.232Z,5.97
2018-06-16T23:16:27.569Z,5.30
2018-06-16T23:18:56.800Z,5.10
2018-06-16T23:21:26.068Z,5.77
2018-06-16T23:23:54.955Z,5.70
2018-06-16T23:26:23.957Z,6.23
2018-06-16T23:28:52.891Z,5.50
2018-06-16T23:31:22.555Z,6.17
2018-06-16T23:33:51.741Z,5.63
2018-06-16T23:36:21.208Z,5.60
2018-06-16T23:38:50.228Z,5.77
2018-06-16T23:41:19.153Z,6.03
2018-06-16T23:43:48.127Z,6.13
2018-06-16T23:46:17.525Z,6.73
2018-06-16T23:48:46.867Z,6.20
2018-06-16T23:51:16.032Z,5.27
2018-06-16T23:53:45.255Z,4.73
2018-06-16T23:56:14.612Z,5.67
2018-06-16T23:58:44.380Z,6.27
